Webbwood, Canada
Current Conditions -  °F | °C
As of 7:00 AM on Saturday 25 Oct 2014 (Local Time) from CYZE Reporting Station
Overcast Overcast  
Wind Chill: 52°   Ceiling: 1500
Heat Index: 52°   Visibility: 9mi
Dew Point: 50°   Wind: 13mph
Humidity: 94%   Direction: 240°WSW
Pressure: 29.62"   Gusts: 21mph
Location:  46.27°N, 81.88°W
Report Text: CYZE 251100Z AUTO 24011G18KT 9SM OVC015 11/10 A2962 RMK PRESFR SLP033
Loading
Personal Weather Stations






























Interactive Weather Map
Tropical Storm Tracking
New forecast layout! Learn more

10-Day Weather Forecast

Advertisements
Track Severe Weather on mobile